The Florida Keys Marathon Airport Marathon US
ICAO: KMTH
IATA: MTH
Category: Medium
Scheduled Services: No

Elevation: 5 ft
TransAlt. 18000 ft.

Airport Communications:
ASOS:135.525
MIAMI CNTR:133.5
MIAMI RDO:122.6
CTAF/UNICOM:122.8

KMTH Zoom In..

Runways:

(A) RW 07 length 5008 ft width 100 ft
---- / hdg 71

(B) RW 25 length 5008 ft width 100 ft
---- / hdg 251

Location; KMTH
Day. 24 / Time. 12.53 Zulu
* Altimeter: 30.05
* Temperature: 27° c. 80.6°f.
* Wind from: 090° Speed 06 kn.
Dewpoint: 22° c.
Visibility: 10 Statute Miles.
Clouds: Clear (automated report).

KMTH 241253Z AUTO 09006KT 10SM CLR 27/22 A3005 RMK AO2 SLP174 T02720222


Wind From 090°
Speed 06 kn.

 
 
jpsmedia.com for Web Design SOUNDCLOUD worldairports.se 2018   terms of use